Time;durP1;ratioP1;P1;durP2;ratioP2;P2;SDS_P1;SDS_P2;PMS_P1;PMS_P2;Temp;Humidity;BMP_temperature;BMP_pressure;BME280_temperature;BME280_humidity;BME280_pressure;Samples;Min_cycle;Max_cycle;Signal;HPM_P1;HPM_P2
2023/06/11 00:01:56;;;;;;;5.23;1.80;;;;;;;17.31;92.78;102171.78;5072250;28;20228;-71
2023/06/11 00:04:25;;;;;;;4.37;1.93;;;;;;;17.32;92.03;102163.19;5064191;28;20227;-71
2023/06/11 00:06:56;;;;;;;2.43;1.57;;;;;;;17.12;94.35;102170.66;5065021;28;20582;-71
2023/06/11 00:09:25;;;;;;;2.07;1.77;;;;;;;17.21;93.33;102169.91;5069338;28;20231;-71
2023/06/11 00:11:53;;;;;;;4.17;1.93;;;;;;;17.17;94.16;102163.81;5067261;28;20193;-71
2023/06/11 00:14:19;;;;;;;3.07;2.17;;;;;;;17.15;93.99;102169.84;5069486;28;20227;-71
2023/06/11 00:16:45;;;;;;;4.10;1.90;;;;;;;17.14;95.20;102173.28;5068143;28;20200;-71
2023/06/11 00:19:11;;;;;;;4.60;2.00;;;;;;;17.03;96.30;102172.22;5065362;28;20212;-71
2023/06/11 00:21:43;;;;;;;3.60;1.77;;;;;;;17.03;95.90;102180.00;5067499;28;20769;-71
2023/06/11 00:24:11;;;;;;;5.40;2.00;;;;;;;16.97;98.03;102185.09;5070135;28;20209;-71
2023/06/11 00:26:36;;;;;;;5.83;1.90;;;;;;;16.84;99.40;102196.97;5071180;28;20824;-71
2023/06/11 00:29:01;;;;;;;4.17;1.93;;;;;;;16.79;99.46;102193.47;5068984;28;20206;-71
2023/06/11 00:31:27;;;;;;;7.33;2.30;;;;;;;16.74;100.00;102197.69;5070018;28;20228;-71
2023/06/11 00:33:52;;;;;;;5.37;2.00;;;;;;;16.77;100.00;102202.91;5069776;28;20577;-71
2023/06/11 00:36:20;;;;;;;2.53;1.53;;;;;;;16.71;100.00;102194.19;5067337;28;20190;-71
2023/06/11 00:38:46;;;;;;;4.90;2.10;;;;;;;16.60;100.00;102196.59;5069677;28;20205;-71
2023/06/11 00:41:11;;;;;;;4.87;1.93;;;;;;;16.63;100.00;102206.13;5070260;28;20644;-71
2023/06/11 00:43:38;;;;;;;6.00;1.93;;;;;;;16.60;100.00;102206.94;5068906;28;20216;-71
2023/06/11 00:46:10;;;;;;;3.07;1.67;;;;;;;16.52;100.00;102205.06;5063994;28;20219;-71
2023/06/11 00:48:36;;;;;;;5.57;1.73;;;;;;;16.53;100.00;102212.00;5075825;28;20201;-71
2023/06/11 00:51:02;;;;;;;5.23;1.67;;;;;;;16.49;100.00;102215.38;5064056;28;20192;-71
2023/06/11 00:53:28;;;;;;;3.33;1.73;;;;;;;16.39;100.00;102219.44;5069393;28;20572;-71
2023/06/11 00:55:54;;;;;;;4.23;2.03;;;;;;;16.41;100.00;102202.31;5069502;28;20185;-71
2023/06/11 00:58:21;;;;;;;2.50;1.70;;;;;;;16.34;100.00;102205.56;5069091;28;20189;-71
2023/06/11 01:00:50;;;;;;;3.83;1.90;;;;;;;16.31;100.00;102215.00;5069733;28;20201;-71
2023/06/11 01:03:21;;;;;;;4.70;1.83;;;;;;;16.24;100.00;102219.19;5065564;28;20753;-71
2023/06/11 01:06:04;;;;;;;3.90;1.80;;;;;;;16.22;100.00;102220.88;5068412;28;20240;-71
2023/06/11 01:08:31;;;;;;;4.97;1.77;;;;;;;16.14;100.00;102225.03;5084558;28;20219;-71
2023/06/11 01:11:01;;;;;;;4.43;1.87;;;;;;;16.10;100.00;102227.50;5069638;28;20189;-70
2023/06/11 01:13:30;;;;;;;2.93;1.70;;;;;;;16.11;100.00;102224.97;5065724;28;20209;-71
2023/06/11 01:16:03;;;;;;;2.93;1.93;;;;;;;16.07;100.00;102220.56;5068899;28;20188;-70
2023/06/11 01:18:37;;;;;;;5.40;2.30;;;;;;;15.98;100.00;102228.16;5065362;28;20189;-70
2023/06/11 01:21:18;;;;;;;3.93;2.10;;;;;;;15.91;100.00;102243.50;5058560;28;20580;-70
2023/06/11 01:24:40;;;;;;;3.93;2.07;;;;;;;15.96;100.00;102229.84;5084776;28;20248;-70
2023/06/11 01:27:24;;;;;;;4.87;1.83;;;;;;;15.84;100.00;102241.66;5049957;28;20205;-70
2023/06/11 01:29:53;;;;;;;3.80;2.03;;;;;;;15.86;100.00;102234.78;5082641;28;20188;-70
2023/06/11 01:32:27;;;;;;;4.17;1.70;;;;;;;15.89;100.00;102224.53;5065753;28;20192;-70
2023/06/11 01:35:04;;;;;;;4.43;1.87;;;;;;;15.77;100.00;102239.75;5059339;28;20562;-70
2023/06/11 01:37:38;;;;;;;3.93;1.97;;;;;;;15.74;100.00;102235.41;5067900;28;20189;-70
2023/06/11 01:40:06;;;;;;;3.97;2.03;;;;;;;15.76;100.00;102233.75;5066810;28;20189;-70
2023/06/11 01:42:41;;;;;;;3.37;1.93;;;;;;;15.73;100.00;102237.97;5068543;28;20765;-71
2023/06/11 01:45:07;;;;;;;5.33;2.10;;;;;;;15.71;100.00;102229.31;5068043;28;20280;-70
2023/06/11 01:47:33;;;;;;;3.60;1.60;;;;;;;15.61;100.00;102245.47;5049801;28;20221;-70
2023/06/11 01:50:00;;;;;;;4.47;2.13;;;;;;;15.56;100.00;102239.34;5069244;28;20647;-70
2023/06/11 01:52:26;;;;;;;6.00;2.13;;;;;;;15.60;100.00;102238.53;5081798;28;20204;-71
2023/06/11 01:54:51;;;;;;;4.13;2.10;;;;;;;15.60;100.00;102229.09;5069641;28;20272;-70
2023/06/11 01:57:17;;;;;;;4.03;1.97;;;;;;;15.54;100.00;102234.13;5069541;28;20280;-70
2023/06/11 01:59:43;;;;;;;2.90;1.70;;;;;;;15.56;100.00;102239.34;5077847;28;20193;-70
2023/06/11 02:02:08;;;;;;;4.30;1.70;;;;;;;15.53;100.00;102228.94;5065338;28;20216;-70
2023/06/11 02:04:34;;;;;;;4.27;2.10;;;;;;;15.49;100.00;102238.31;5071210;28;20205;-70
2023/06/11 02:07:00;;;;;;;4.93;2.03;;;;;;;15.54;100.00;102233.25;5063315;28;20219;-70
2023/06/11 02:09:25;;;;;;;3.47;1.60;;;;;;;15.55;100.00;102225.53;5068236;28;20193;-70
2023/06/11 02:11:51;;;;;;;5.80;1.97;;;;;;;15.46;100.00;102230.50;5067292;28;20189;-70
2023/06/11 02:14:16;;;;;;;3.63;2.13;;;;;;;15.49;100.00;102227.13;5065758;28;20217;-70
2023/06/11 02:16:42;;;;;;;4.03;2.07;;;;;;;15.45;100.00;102225.31;5062993;28;20191;-70
2023/06/11 02:19:07;;;;;;;4.93;2.07;;;;;;;15.43;100.00;102222.69;5067233;28;20741;-70
2023/06/11 02:21:33;;;;;;;4.10;2.40;;;;;;;15.43;100.00;102230.44;5066366;28;20582;-70
2023/06/11 02:23:59;;;;;;;3.27;2.03;;;;;;;15.44;100.00;102233.88;5079308;28;20678;-70
2023/06/11 02:26:25;;;;;;;6.57;2.10;;;;;;;15.41;100.00;102232.13;5066872;28;20189;-70
2023/06/11 02:28:52;;;;;;;6.37;2.13;;;;;;;15.40;100.00;102232.06;5068415;28;20189;-70
2023/06/11 02:31:17;;;;;;;4.37;2.07;;;;;;;15.36;100.00;102235.41;5066037;28;20221;-70
2023/06/11 02:33:42;;;;;;;4.63;1.90;;;;;;;15.35;100.00;102234.56;5066886;28;20255;-70
2023/06/11 02:36:08;;;;;;;4.63;1.80;;;;;;;15.34;100.00;102239.69;5061981;28;20196;-70
2023/06/11 02:38:33;;;;;;;3.63;1.97;;;;;;;15.29;100.00;102242.13;5077155;28;20208;-70
2023/06/11 02:40:59;;;;;;;5.47;2.20;;;;;;;15.22;100.00;102241.94;5067005;28;20208;-72
2023/06/11 02:43:24;;;;;;;3.63;1.90;;;;;;;15.28;100.00;102236.94;5064188;28;20563;-72
2023/06/11 02:45:50;;;;;;;5.37;1.90;;;;;;;15.26;100.00;102234.31;5067689;28;20211;-71
2023/06/11 02:48:15;;;;;;;8.03;2.43;;;;;;;15.27;100.00;102240.34;5064842;28;20276;-72
2023/06/11 02:50:41;;;;;;;4.33;2.23;;;;;;;15.21;100.00;102242.78;5063377;28;20191;-71
2023/06/11 02:53:06;;;;;;;3.60;2.20;;;;;;;15.20;100.00;102241.91;5063988;28;20216;-69
2023/06/11 02:55:32;;;;;;;3.43;2.00;;;;;;;15.24;100.00;102235.13;5065615;28;20193;-72
2023/06/11 02:57:57;;;;;;;4.37;2.00;;;;;;;15.18;100.00;102237.53;5066489;28;20732;-72
2023/06/11 03:00:22;;;;;;;3.33;1.70;;;;;;;15.14;100.00;102243.50;5067067;28;20195;-72
2023/06/11 03:02:48;;;;;;;5.77;2.23;;;;;;;15.08;100.00;102245.91;5064623;28;20307;-72
2023/06/11 03:05:18;;;;;;;3.37;1.80;;;;;;;15.08;100.00;102244.22;5063789;28;20618;-72
2023/06/11 03:07:44;;;;;;;6.87;2.30;;;;;;;15.06;100.00;102245.03;5065944;28;20189;-72
2023/06/11 03:10:09;;;;;;;4.07;2.30;;;;;;;15.11;100.00;102244.28;5067197;28;20188;-71
2023/06/11 03:12:35;;;;;;;4.77;2.00;;;;;;;15.06;100.00;102255.34;5066524;28;21185;-71
2023/06/11 03:15:01;;;;;;;4.70;2.37;;;;;;;15.06;100.00;102252.75;5066072;28;20259;-71
2023/06/11 03:17:27;;;;;;;5.83;2.27;;;;;;;15.06;100.00;102252.75;5064271;28;20193;-71
2023/06/11 03:19:52;;;;;;;4.33;2.13;;;;;;;15.05;100.00;102249.31;5067090;28;20192;-71
2023/06/11 03:22:18;;;;;;;4.17;2.10;;;;;;;15.07;100.00;102252.81;5065048;28;20213;-71
2023/06/11 03:24:44;;;;;;;4.87;2.20;;;;;;;15.01;100.00;102254.38;5064569;28;20212;-71
2023/06/11 03:27:21;;;;;;;3.90;2.40;;;;;;;15.06;100.00;102248.47;5066639;28;20278;-71
2023/06/11 03:29:46;;;;;;;4.20;2.37;;;;;;;15.03;100.00;102258.72;5059325;28;20197;-71
2023/06/11 03:32:12;;;;;;;7.30;2.43;;;;;;;15.04;100.00;102249.25;5065183;28;20242;-71
2023/06/11 03:34:38;;;;;;;5.80;2.50;;;;;;;15.09;100.00;102243.38;5075879;28;20658;-71
2023/06/11 03:37:03;;;;;;;3.17;1.83;;;;;;;15.14;100.00;102240.91;5062088;28;20196;-72
2023/06/11 03:39:29;;;;;;;4.30;2.50;;;;;;;15.08;100.00;102254.53;5066402;28;20189;-71
2023/06/11 03:41:56;;;;;;;4.07;2.13;;;;;;;15.18;100.00;102247.88;5065824;28;20216;-71
2023/06/11 03:44:23;;;;;;;4.80;2.60;;;;;;;15.16;100.00;102254.72;5065527;28;20212;-71
2023/06/11 03:46:49;;;;;;;5.93;2.10;;;;;;;15.16;100.00;102255.59;5066461;28;20193;-73
2023/06/11 03:49:14;;;;;;;6.37;2.33;;;;;;;15.18;100.00;102255.63;5058776;28;20218;-71
2023/06/11 03:51:40;;;;;;;3.77;1.93;;;;;;;15.15;100.00;102260.72;5061480;28;20189;-71
2023/06/11 03:54:06;;;;;;;4.07;2.43;;;;;;;15.16;100.00;102258.19;5063531;28;20262;-71
2023/06/11 03:56:32;;;;;;;5.03;2.20;;;;;;;15.23;100.00;102254.00;5048670;28;20192;-70
2023/06/11 03:58:58;;;;;;;6.73;2.67;;;;;;;15.22;100.00;102257.44;5074913;28;20531;-71
2023/06/11 04:01:24;;;;;;;5.03;2.40;;;;;;;15.28;100.00;102249.84;5063142;28;20236;-70
2023/06/11 04:03:50;;;;;;;5.23;2.37;;;;;;;15.30;100.00;102243.88;5066451;28;20212;-70
2023/06/11 04:06:17;;;;;;;5.23;2.13;;;;;;;15.36;100.00;102249.22;5063526;28;20193;-70
2023/06/11 04:08:43;;;;;;;4.30;2.40;;;;;;;15.41;100.00;102239.84;5065059;28;20185;-70
2023/06/11 04:11:09;;;;;;;4.87;2.40;;;;;;;15.47;100.00;102245.16;5063408;28;20184;-70
2023/06/11 04:13:34;;;;;;;6.93;2.37;;;;;;;15.53;100.00;102244.41;5063853;28;20267;-70
2023/06/11 04:16:00;;;;;;;3.20;2.17;;;;;;;15.58;100.00;102238.53;5066633;28;20192;-70
2023/06/11 04:18:26;;;;;;;3.70;2.13;;;;;;;15.60;100.00;102256.59;5062499;28;20205;-70
2023/06/11 04:20:54;;;;;;;4.80;2.30;;;;;;;15.64;100.00;102259.31;5062996;28;20217;-70
2023/06/11 04:23:20;;;;;;;4.87;2.20;;;;;;;15.65;100.00;102253.28;5060625;28;20253;-70
2023/06/11 04:25:48;;;;;;;4.53;2.50;;;;;;;15.66;100.00;102249.88;5066056;28;20695;-70
2023/06/11 04:28:18;;;;;;;4.00;2.37;;;;;;;15.68;100.00;102235.28;5066348;28;20196;-70
2023/06/11 04:30:45;;;;;;;5.73;2.53;;;;;;;15.75;100.00;102244.91;5066059;28;20200;-70
2023/06/11 04:33:11;;;;;;;6.57;2.67;;;;;;;15.84;100.00;102229.59;5061874;28;20205;-70
2023/06/11 04:35:37;;;;;;;4.77;2.53;;;;;;;15.92;100.00;102237.50;5073567;28;20258;-70
2023/06/11 04:38:04;;;;;;;4.40;2.30;;;;;;;15.94;100.00;102218.59;5064000;28;20189;-70
2023/06/11 04:40:30;;;;;;;3.73;2.40;;;;;;;16.03;100.00;102210.16;5063261;28;20206;-70
2023/06/11 04:42:57;;;;;;;3.87;2.20;;;;;;;16.04;100.00;102210.19;5066141;28;20267;-70
2023/06/11 04:45:26;;;;;;;5.17;2.33;;;;;;;16.10;100.00;102214.59;5064096;28;20710;-70
2023/06/11 04:47:52;;;;;;;6.57;2.53;;;;;;;16.17;100.00;102208.72;5069360;28;20546;-69
2023/06/11 04:50:20;;;;;;;5.43;2.63;;;;;;;16.28;100.00;102196.84;5064881;28;20715;-70
2023/06/11 04:52:49;;;;;;;4.50;2.40;;;;;;;16.38;100.00;102185.81;5069469;28;20213;-70
2023/06/11 04:55:16;;;;;;;6.20;2.70;;;;;;;16.47;100.00;102167.91;5066333;28;20193;-70
2023/06/11 04:57:42;;;;;;;4.80;2.50;;;;;;;16.58;100.00;102163.78;5068037;28;20751;-70
2023/06/11 05:00:13;;;;;;;5.63;2.67;;;;;;;16.68;100.00;102151.03;5069591;28;20197;-70
2023/06/11 05:02:43;;;;;;;7.47;3.13;;;;;;;16.76;100.00;102158.91;5066432;28;20212;-70
2023/06/11 05:05:09;;;;;;;4.67;2.47;;;;;;;16.86;100.00;102140.09;5051901;28;20204;-71
2023/06/11 05:07:35;;;;;;;6.07;3.10;;;;;;;16.94;100.00;102139.34;5067999;28;20182;-70
2023/06/11 05:10:00;;;;;;;7.13;2.57;;;;;;;16.99;100.00;102114.38;5055169;28;20181;-71
2023/06/11 05:12:27;;;;;;;4.53;2.27;;;;;;;17.07;100.00;102111.91;5069545;28;20234;-72
2023/06/11 05:14:53;;;;;;;4.60;2.60;;;;;;;17.13;100.00;102110.25;5069869;28;20193;-72
2023/06/11 05:17:18;;;;;;;6.90;2.70;;;;;;;17.22;100.00;102102.63;5068125;28;20235;-71
2023/06/11 05:19:46;;;;;;;5.17;2.97;;;;;;;17.36;100.00;102101.06;5070428;28;20592;-71
2023/06/11 05:22:11;;;;;;;5.07;2.73;;;;;;;17.38;100.00;102109.75;5067384;28;20209;-70
2023/06/11 05:24:41;;;;;;;5.07;2.40;;;;;;;17.50;100.00;102102.13;5068843;28;20235;-71
2023/06/11 05:27:07;;;;;;;5.23;2.53;;;;;;;17.56;100.00;102089.25;5080838;28;20243;-71
2023/06/11 05:29:33;;;;;;;4.07;2.37;;;;;;;17.59;100.00;102076.31;5083615;28;20185;-71
2023/06/11 05:32:00;;;;;;;5.77;2.53;;;;;;;17.70;100.00;102081.63;5077878;28;20284;-71
2023/06/11 05:34:26;;;;;;;6.10;2.47;;;;;;;17.83;100.00;102088.69;5061009;28;20229;-71
2023/06/11 05:36:53;;;;;;;6.00;2.87;;;;;;;17.89;100.00;102079.25;5065977;28;20223;-71
2023/06/11 05:39:20;;;;;;;4.73;2.43;;;;;;;17.96;100.00;102070.66;5066069;28;20221;-72
2023/06/11 05:41:45;;;;;;;3.90;2.30;;;;;;;18.13;100.00;102070.78;5065320;28;20690;-72
2023/06/11 05:44:11;;;;;;;5.13;2.53;;;;;;;18.16;100.00;102060.47;5067717;28;20211;-72
2023/06/11 05:46:38;;;;;;;5.30;2.70;;;;;;;18.26;100.00;102052.75;5066548;28;20669;-71
2023/06/11 05:49:05;;;;;;;3.07;2.23;;;;;;;18.32;100.00;102055.41;5070116;28;20197;-72
2023/06/11 05:51:31;;;;;;;6.30;2.60;;;;;;;18.48;100.00;102046.91;5064208;28;20178;-72
2023/06/11 05:54:01;;;;;;;5.27;3.07;;;;;;;18.45;100.00;102018.34;5063798;28;20591;-71
2023/06/11 05:56:27;;;;;;;3.57;2.47;;;;;;;18.53;100.00;102016.66;5067986;28;20193;-71
2023/06/11 05:58:53;;;;;;;4.63;2.50;;;;;;;18.69;100.00;102023.66;5066792;28;20192;-71
2023/06/11 06:01:21;;;;;;;3.73;2.67;;;;;;;18.78;100.00;102010.75;5050028;28;20234;-71
2023/06/11 06:03:48;;;;;;;7.57;2.67;;;;;;;18.91;100.00;102003.88;5068916;28;20228;-71
2023/06/11 06:06:13;;;;;;;4.77;2.50;;;;;;;19.07;100.00;102011.72;5063993;28;20197;-71
2023/06/11 06:08:40;;;;;;;5.90;2.77;;;;;;;19.22;100.00;101997.91;5062705;28;20250;-71
2023/06/11 06:11:06;;;;;;;3.53;2.30;;;;;;;19.26;98.94;101977.16;5046286;28;20185;-71
2023/06/11 06:13:31;;;;;;;4.77;2.63;;;;;;;19.31;97.25;101974.59;5067620;28;20208;-71
2023/06/11 06:16:00;;;;;;;6.60;3.07;;;;;;;19.44;96.68;101966.81;5068565;28;20215;-72
2023/06/11 06:18:28;;;;;;;3.23;2.40;;;;;;;19.49;94.07;101946.03;5049043;28;20197;-71
2023/06/11 06:20:54;;;;;;;5.27;2.67;;;;;;;19.53;95.84;101945.19;5061410;28;20573;-72
2023/06/11 06:23:20;;;;;;;5.13;2.87;;;;;;;19.67;94.29;101941.69;5066038;28;20282;-71
2023/06/11 06:25:53;;;;;;;4.47;2.33;;;;;;;19.82;95.34;101951.25;5067256;28;20196;-71
2023/06/11 06:28:19;;;;;;;5.17;2.40;;;;;;;19.95;90.26;101916.56;5067668;28;20243;-72
2023/06/11 06:30:44;;;;;;;9.33;2.73;;;;;;;20.08;88.34;101911.34;5067042;28;20181;-73
2023/06/11 06:33:11;;;;;;;3.27;2.57;;;;;;;20.15;90.72;101920.00;5066253;28;21034;-71
2023/06/11 06:35:39;;;;;;;5.50;3.00;;;;;;;20.28;91.19;101908.72;5063404;28;20651;-71
2023/06/11 06:38:05;;;;;;;8.53;3.03;;;;;;;20.44;85.87;101894.75;5063860;28;20677;-72
2023/06/11 06:40:32;;;;;;;4.23;2.43;;;;;;;20.56;89.34;101905.13;5067290;28;20591;-71
2023/06/11 06:42:58;;;;;;;7.00;2.73;;;;;;;20.76;87.04;101893.75;5051983;28;20215;-71
2023/06/11 06:45:30;;;;;;;4.63;2.40;;;;;;;20.76;81.98;101870.31;5065491;28;20227;-71
2023/06/11 06:47:58;;;;;;;5.80;3.00;;;;;;;20.73;79.47;101854.69;5060580;28;20224;-71
2023/06/11 06:50:25;;;;;;;2.87;2.17;;;;;;;20.85;78.26;101841.63;5049176;28;20204;-71
2023/06/11 06:52:50;;;;;;;5.90;2.70;;;;;;;21.05;80.67;101868.41;5067388;28;20212;-72
2023/06/11 06:55:16;;;;;;;5.53;2.80;;;;;;;21.31;78.68;101856.06;5066211;28;20192;-71
2023/06/11 06:57:42;;;;;;;3.83;2.57;;;;;;;21.31;76.61;101850.84;5066975;28;20189;-71
2023/06/11 07:00:09;;;;;;;7.43;2.60;;;;;;;21.35;72.32;101826.50;5067167;28;20188;-71
2023/06/11 07:02:35;;;;;;;3.80;2.50;;;;;;;21.29;74.21;101843.94;5065427;28;20289;-71
2023/06/11 07:05:03;;;;;;;5.50;2.80;;;;;;;21.54;79.94;101887.16;5066652;28;20665;-71
2023/06/11 07:07:28;;;;;;;4.73;2.80;;;;;;;21.77;77.03;101875.66;5063476;28;20189;-71
2023/06/11 07:09:54;;;;;;;5.40;2.60;;;;;;;21.91;74.75;101855.53;5066966;28;20250;-71
2023/06/11 07:12:20;;;;;;;4.23;2.47;;;;;;;21.94;70.55;101833.75;5066010;28;20207;-71
2023/06/11 07:14:46;;;;;;;5.97;2.73;;;;;;;21.99;67.92;101830.22;5067096;28;20698;-71
2023/06/11 07:17:11;;;;;;;7.13;2.90;;;;;;;21.97;66.47;101847.63;5067164;28;20203;-71
2023/06/11 07:19:36;;;;;;;6.80;2.70;;;;;;;22.28;66.82;101859.44;5064144;28;20693;-71
2023/06/11 07:22:02;;;;;;;4.23;2.83;;;;;;;22.26;66.77;101860.34;5065992;28;20308;-71
2023/06/11 07:24:29;;;;;;;5.43;2.90;;;;;;;22.50;66.57;101859.19;5075561;28;20280;-71
2023/06/11 07:26:55;;;;;;;3.03;2.60;;;;;;;22.56;67.49;101870.41;5063615;28;20670;-71
2023/06/11 07:29:21;;;;;;;4.80;2.80;;;;;;;22.74;65.27;101857.09;5063600;28;20196;-71
2023/06/11 07:31:47;;;;;;;3.93;2.60;;;;;;;22.84;65.88;101866.53;5066686;28;20228;-71
2023/06/11 07:34:13;;;;;;;5.07;2.77;;;;;;;22.85;61.30;101849.13;5065512;28;20814;-71
2023/06/11 07:36:39;;;;;;;6.20;2.87;;;;;;;22.85;61.67;101860.44;5060371;28;20956;-71
2023/06/11 07:39:05;;;;;;;5.10;2.83;;;;;;;23.04;62.32;101874.09;5058566;28;20192;-71
2023/06/11 07:41:31;;;;;;;5.93;2.70;;;;;;;23.09;60.10;101864.44;5060316;28;20209;-71
2023/06/11 07:43:56;;;;;;;4.03;3.03;;;;;;;23.22;59.12;101861.66;5061405;28;20202;-71
2023/06/11 07:46:22;;;;;;;6.73;2.70;;;;;;;23.44;58.46;101860.38;5061749;28;20269;-71
2023/06/11 07:48:48;;;;;;;5.97;2.90;;;;;;;23.46;58.90;101892.63;5064735;28;20197;-71
2023/06/11 07:51:14;;;;;;;5.20;3.10;;;;;;;23.56;57.38;101875.00;5065622;28;20604;-71
2023/06/11 07:53:41;;;;;;;2.53;2.30;;;;;;;23.74;55.94;101864.22;5065965;28;20666;-71
2023/06/11 07:56:07;;;;;;;5.77;2.83;;;;;;;23.98;55.69;101872.53;5065704;28;20274;-72
2023/06/11 07:58:32;;;;;;;4.13;2.67;;;;;;;24.02;53.27;101855.88;5063639;28;20673;-72
2023/06/11 08:00:58;;;;;;;6.03;2.83;;;;;;;24.10;54.05;101885.38;5061826;28;20594;-71
2023/06/11 08:03:23;;;;;;;6.03;3.33;;;;;;;24.21;54.56;101879.94;5063443;28;20354;-71
2023/06/11 08:05:49;;;;;;;3.70;2.80;;;;;;;24.36;53.39;101867.38;5064414;28;20196;-71
2023/06/11 08:08:14;;;;;;;3.53;2.70;;;;;;;24.43;51.79;101852.41;5064092;28;20569;-71
2023/06/11 08:10:40;;;;;;;6.03;2.50;;;;;;;24.48;52.35;101869.75;5063056;28;20185;-71
2023/06/11 08:13:05;;;;;;;6.40;3.20;;;;;;;24.81;54.50;101889.16;5063109;28;20335;-71
2023/06/11 08:15:31;;;;;;;5.20;2.92;;;;;;;24.98;53.11;101876.53;5058667;28;20189;-71
2023/06/11 08:17:56;;;;;;;4.88;2.78;;;;;;;24.91;50.53;101857.44;5061707;28;20205;-71
2023/06/11 08:20:22;;;;;;;3.78;2.80;;;;;;;25.01;50.11;101866.81;5061724;28;20320;-72
2023/06/11 08:22:47;;;;;;;6.40;3.00;;;;;;;25.21;48.94;101863.72;5067300;28;20691;-71
2023/06/11 08:25:13;;;;;;;4.53;2.80;;;;;;;25.26;49.19;101864.47;5065353;28;20200;-71
2023/06/11 08:27:39;;;;;;;4.97;2.75;;;;;;;25.48;48.90;101866.59;5071427;28;20700;-71
2023/06/11 08:30:06;;;;;;;4.22;2.90;;;;;;;25.41;48.41;101921.88;5069226;28;20212;-71
2023/06/11 08:32:32;;;;;;;4.05;2.88;;;;;;;25.53;50.30;101960.91;5061910;28;20290;-71
2023/06/11 08:34:57;;;;;;;7.60;2.75;;;;;;;25.55;47.85;101909.28;5067142;28;20201;-71
2023/06/11 08:37:23;;;;;;;5.32;2.65;;;;;;;25.89;48.00;101916.25;5065665;28;20247;-72
2023/06/11 08:39:48;;;;;;;4.80;2.67;;;;;;;25.66;45.92;101904.59;5065941;28;20232;-72
2023/06/11 08:42:14;;;;;;;3.60;2.50;;;;;;;25.75;46.42;101928.88;5065492;28;20232;-72
2023/06/11 08:44:39;;;;;;;3.17;2.70;;;;;;;25.81;45.83;101922.59;5068061;28;20209;-71
2023/06/11 08:47:06;;;;;;;5.75;2.90;;;;;;;26.08;46.02;101922.75;5068293;28;20193;-71
2023/06/11 08:49:34;;;;;;;6.38;2.92;;;;;;;26.04;46.18;101938.63;5068358;28;20189;-71
2023/06/11 08:52:03;;;;;;;4.43;2.65;;;;;;;26.20;46.85;101939.97;5071355;28;20246;-71
2023/06/11 08:54:28;;;;;;;4.68;2.83;;;;;;;25.71;44.97;101929.84;5067434;28;20229;-70
2023/06/11 08:56:54;;;;;;;3.42;3.00;;;;;;;26.04;46.08;101951.75;5063150;28;20193;-70
2023/06/11 08:59:20;;;;;;;4.75;2.80;;;;;;;25.94;45.40;101948.53;5067401;28;20603;-71
2023/06/11 09:01:50;;;;;;;3.75;2.75;;;;;;;26.38;44.46;101944.72;5072075;28;20277;-71
2023/06/11 09:04:20;;;;;;;4.05;2.72;;;;;;;26.57;44.48;101931.00;5069527;28;20307;-71
2023/06/11 09:06:57;;;;;;;5.57;2.75;;;;;;;26.68;44.45;101931.59;5062308;28;20212;-71
2023/06/11 09:09:22;;;;;;;5.45;2.80;;;;;;;26.91;44.23;101937.00;5068961;28;20188;-71
2023/06/11 09:11:47;;;;;;;5.68;2.58;;;;;;;27.00;44.89;101944.63;5070091;28;20647;-70
2023/06/11 09:14:13;;;;;;;5.15;3.20;;;;;;;26.94;43.24;101917.66;5064658;28;20210;-71
2023/06/11 09:16:46;;;;;;;7.13;2.88;;;;;;;27.24;43.82;101943.03;5068160;28;20246;-70
2023/06/11 09:19:19;;;;;;;5.50;2.90;;;;;;;27.42;43.35;101930.16;5057586;28;20198;-70
2023/06/11 09:21:53;;;;;;;5.25;2.60;;;;;;;27.70;44.34;101951.16;5067307;28;20219;-71
2023/06/11 09:24:19;;;;;;;4.75;2.70;;;;;;;27.75;42.52;101922.88;5064330;28;20287;-73
2023/06/11 09:26:53;;;;;;;7.82;2.90;;;;;;;27.78;42.40;101928.94;5070403;28;20204;-73
2023/06/11 09:29:20;;;;;;;4.43;2.80;;;;;;;27.75;42.55;101930.78;5066321;28;20200;-72
2023/06/11 09:31:46;;;;;;;3.05;2.70;;;;;;;27.76;42.46;101930.75;5071067;28;20717;-71
2023/06/11 09:34:16;;;;;;;3.33;2.65;;;;;;;27.85;42.94;101941.00;5068793;28;20220;-73
2023/06/11 09:36:46;;;;;;;8.63;3.15;;;;;;;27.94;41.44;101932.78;5066823;28;20193;-71
2023/06/11 09:39:13;;;;;;;3.67;2.58;;;;;;;28.19;41.32;101925.72;5068092;28;20204;-71
2023/06/11 09:41:49;;;;;;;3.38;2.80;;;;;;;28.48;40.14;101922.94;5063330;28;20305;-71
2023/06/11 09:44:19;;;;;;;5.63;2.70;;;;;;;28.61;40.04;101928.59;5064086;28;20324;-71
2023/06/11 09:46:46;;;;;;;3.53;2.60;;;;;;;28.62;40.56;101939.09;5064094;28;20208;-72
2023/06/11 09:49:12;;;;;;;7.03;2.88;;;;;;;28.43;38.13;101921.38;5063701;28;20195;-72
2023/06/11 09:51:43;;;;;;;3.75;2.95;;;;;;;28.64;39.36;101936.41;5059904;28;20189;-71
2023/06/11 09:54:10;;;;;;;4.03;2.83;;;;;;;28.89;38.24;101930.16;5060361;28;20210;-71
2023/06/11 09:56:37;;;;;;;4.43;2.88;;;;;;;28.87;37.38;101915.28;5066911;28;21005;-72
2023/06/11 09:59:03;;;;;;;3.63;2.83;;;;;;;28.92;37.37;101924.72;5068517;28;20193;-72
2023/06/11 10:01:30;;;;;;;3.90;2.67;;;;;;;29.03;36.90;101929.63;5067325;28;20220;-72
2023/06/11 10:03:59;;;;;;;8.23;3.25;;;;;;;28.71;37.04;101922.06;5067787;28;20212;-71
2023/06/11 10:06:39;;;;;;;4.78;2.97;;;;;;;28.88;36.28;101933.69;5065523;28;20197;-71
2023/06/11 10:09:11;;;;;;;5.45;2.90;;;;;;;29.08;37.55;101961.97;5062591;28;20236;-72
2023/06/11 10:11:38;;;;;;;3.55;2.58;;;;;;;29.36;36.41;101942.34;5067891;28;20188;-72
2023/06/11 10:14:05;;;;;;;4.32;2.67;;;;;;;29.49;36.36;101922.44;5068788;28;20216;-71
2023/06/11 10:16:34;;;;;;;4.55;2.80;;;;;;;28.97;35.19;101922.75;5066340;28;20215;-71
2023/06/11 10:19:07;;;;;;;5.53;3.30;;;;;;;28.75;35.29;101940.38;5067297;28;20211;-71
2023/06/11 10:21:44;;;;;;;3.33;2.53;;;;;;;29.06;36.14;101954.09;5066005;28;20213;-71
2023/06/11 10:24:22;;;;;;;4.13;3.08;;;;;;;29.43;37.57;101983.41;5067535;28;20232;-71
2023/06/11 10:27:07;;;;;;;4.28;2.63;;;;;;;29.42;36.33;101935.94;5063798;28;21651;-70
2023/06/11 10:29:50;;;;;;;3.78;3.00;;;;;;;29.68;37.09;101952.47;5067233;28;20594;-73
2023/06/11 10:32:17;;;;;;;5.78;2.97;;;;;;;29.56;37.21;101952.97;5063925;28;20188;-71
2023/06/11 10:34:45;;;;;;;4.60;2.75;;;;;;;29.59;36.69;101944.94;5078031;28;20189;-72
2023/06/11 10:37:11;;;;;;;4.70;3.05;;;;;;;29.63;36.91;101946.53;5066058;28;20707;-71
2023/06/11 10:39:49;;;;;;;5.13;2.72;;;;;;;29.43;35.63;101912.09;5066374;28;20213;-71
2023/06/11 10:42:22;;;;;;;3.45;2.80;;;;;;;29.79;36.03;101939.66;5068494;28;20220;-71
2023/06/11 10:44:48;;;;;;;4.10;2.85;;;;;;;29.94;36.84;101938.16;5065540;28;20534;-71
2023/06/11 10:47:13;;;;;;;4.38;2.70;;;;;;;30.06;35.90;101932.31;5066577;28;20208;-71
2023/06/11 10:49:39;;;;;;;4.70;2.83;;;;;;;30.11;34.99;101911.84;5066374;28;20270;-71
2023/06/11 10:52:05;;;;;;;6.28;3.20;;;;;;;30.30;34.83;101912.78;5070903;28;20197;-71
2023/06/11 10:54:34;;;;;;;2.72;2.40;;;;;;;30.43;33.68;101898.06;5066069;28;20200;-71
2023/06/11 10:57:01;;;;;;;5.35;3.17;;;;;;;30.24;33.89;101909.56;5062479;28;20648;-71
2023/06/11 10:59:27;;;;;;;4.80;2.70;;;;;;;30.37;33.40;101901.00;5067797;28;20556;-72
2023/06/11 11:01:53;;;;;;;5.13;2.70;;;;;;;30.24;33.02;101904.28;5066880;28;20213;-71
2023/06/11 11:04:21;;;;;;;3.90;2.42;;;;;;;29.97;33.60;101925.66;5060853;28;20232;-72
2023/06/11 11:06:47;;;;;;;3.10;2.80;;;;;;;30.13;32.88;101918.81;5067022;28;20265;-71
2023/06/11 11:09:19;;;;;;;3.28;2.90;;;;;;;29.20;33.29;101904.28;5067041;28;20204;-71
2023/06/11 11:11:45;;;;;;;2.97;2.67;;;;;;;29.93;32.69;101902.94;5073951;28;20212;-71
2023/06/11 11:14:11;;;;;;;3.08;2.70;;;;;;;30.26;33.76;101928.84;5068181;28;20228;-72
2023/06/11 11:16:37;;;;;;;4.13;2.72;;;;;;;30.39;33.07;101904.44;5066750;28;20326;-72
2023/06/11 11:19:02;;;;;;;3.22;2.92;;;;;;;30.34;31.78;101905.56;5068259;28;20670;-72
2023/06/11 11:21:29;;;;;;;2.92;2.67;;;;;;;30.58;32.95;101915.03;5064571;28;20731;-72
2023/06/11 11:23:56;;;;;;;4.40;2.75;;;;;;;30.43;30.43;101878.72;5065173;28;20678;-72